createdAt,value
2018-08-03T00:00:42.592Z,20.51
2018-08-03T00:01:42.586Z,20.46
2018-08-03T00:02:42.573Z,20.54
2018-08-03T00:03:42.557Z,20.56
2018-08-03T00:04:42.550Z,20.50
2018-08-03T00:05:42.538Z,20.49
2018-08-03T00:06:42.519Z,20.51
2018-08-03T00:07:42.515Z,20.51
2018-08-03T00:08:42.499Z,20.43
2018-08-03T00:09:42.487Z,20.42
2018-08-03T00:10:42.499Z,20.49
2018-08-03T00:11:42.491Z,20.47
2018-08-03T00:12:42.449Z,20.56
2018-08-03T00:13:42.441Z,20.53
2018-08-03T00:14:42.433Z,20.54
2018-08-03T00:15:42.419Z,20.58
2018-08-03T00:16:42.407Z,20.51
2018-08-03T00:17:42.396Z,20.51
2018-08-03T00:18:42.393Z,20.56
2018-08-03T00:19:42.368Z,20.56
2018-08-03T00:20:42.355Z,20.53
2018-08-03T00:21:42.348Z,20.56
2018-08-03T00:22:42.328Z,20.53
2018-08-03T00:23:42.321Z,20.76
2018-08-03T00:24:42.306Z,20.71
2018-08-03T00:25:42.293Z,20.74
2018-08-03T00:26:42.293Z,20.76
2018-08-03T00:27:42.274Z,20.76
2018-08-03T00:28:42.258Z,20.83
2018-08-03T00:29:42.252Z,20.80
2018-08-03T00:30:42.244Z,20.79
2018-08-03T00:31:42.220Z,20.72
2018-08-03T00:32:42.219Z,20.77
2018-08-03T00:33:42.200Z,20.72
2018-08-03T00:34:42.188Z,20.72
2018-08-03T00:35:42.177Z,20.72
2018-08-03T00:36:42.165Z,20.71
2018-08-03T00:37:42.168Z,20.72
2018-08-03T00:38:42.142Z,20.76
2018-08-03T00:39:42.136Z,20.71
2018-08-03T00:40:42.118Z,20.76
2018-08-03T00:41:42.102Z,20.71
2018-08-03T00:42:42.101Z,20.71
2018-08-03T00:43:42.086Z,20.72
2018-08-03T00:44:42.073Z,20.83
2018-08-03T00:45:42.054Z,20.84
2018-08-03T00:46:42.046Z,20.72
2018-08-03T00:47:42.034Z,20.80
2018-08-03T00:48:42.022Z,20.86
2018-08-03T00:49:42.012Z,20.84
2018-08-03T00:50:41.996Z,20.76
2018-08-03T00:51:41.991Z,20.74
2018-08-03T00:52:41.973Z,20.72
2018-08-03T00:53:41.968Z,20.71
2018-08-03T00:54:41.951Z,20.66
2018-08-03T00:55:41.937Z,20.59
2018-08-03T00:56:41.925Z,20.62
2018-08-03T00:57:41.915Z,20.58
2018-08-03T00:58:41.899Z,20.56
2018-08-03T00:59:41.895Z,20.49
2018-08-03T01:00:41.877Z,20.54
2018-08-03T01:01:41.867Z,20.33
2018-08-03T01:02:41.860Z,20.34
2018-08-03T01:03:41.844Z,20.33
2018-08-03T01:04:41.829Z,20.39
2018-08-03T01:05:41.819Z,20.27
2018-08-03T01:06:41.810Z,20.27
2018-08-03T01:07:41.804Z,20.25
2018-08-03T01:08:41.787Z,20.13
2018-08-03T01:09:41.777Z,20.10
2018-08-03T01:10:41.759Z,20.15
2018-08-03T01:11:41.756Z,20.15
2018-08-03T01:12:41.741Z,20.10
2018-08-03T01:13:41.731Z,20.15
2018-08-03T01:14:41.716Z,20.06
2018-08-03T01:15:41.699Z,20.05
2018-08-03T01:16:41.689Z,20.06
2018-08-03T01:17:41.677Z,20.00
2018-08-03T01:18:41.663Z,20.03
2018-08-03T01:19:41.657Z,19.98
2018-08-03T01:20:41.639Z,19.91
2018-08-03T01:21:41.629Z,19.95
2018-08-03T01:22:41.615Z,20.05
2018-08-03T01:23:41.603Z,20.10
2018-08-03T01:24:41.590Z,20.16
2018-08-03T01:25:41.577Z,20.15
2018-08-03T01:26:41.565Z,20.23
2018-08-03T01:27:41.552Z,20.23
2018-08-03T01:28:41.589Z,20.13
2018-08-03T01:29:41.529Z,20.18
2018-08-03T01:30:41.516Z,20.13
2018-08-03T01:31:41.508Z,20.15
2018-08-03T01:32:41.490Z,20.10
2018-08-03T01:33:41.480Z,20.05
2018-08-03T01:34:41.477Z,20.02
2018-08-03T01:35:41.456Z,19.94
2018-08-03T01:36:41.442Z,20.08
2018-08-03T01:37:41.453Z,20.05
2018-08-03T01:38:41.423Z,20.03
2018-08-03T01:39:41.408Z,20.00
2018-08-03T01:40:41.394Z,19.98
2018-08-03T01:41:41.391Z,20.05
2018-08-03T01:42:41.369Z,19.91
2018-08-03T01:43:41.362Z,19.86
2018-08-03T01:44:41.344Z,19.84
2018-08-03T01:45:41.349Z,19.76
2018-08-03T01:46:41.329Z,19.83
2018-08-03T01:47:41.312Z,19.70
2018-08-03T01:48:41.305Z,19.84
2018-08-03T01:49:41.299Z,19.91
2018-08-03T01:50:41.272Z,20.06
2018-08-03T01:51:41.263Z,20.15
2018-08-03T01:52:41.265Z,20.18
2018-08-03T01:53:41.240Z,20.23
2018-08-03T01:54:41.221Z,20.23
2018-08-03T01:55:41.215Z,20.23
2018-08-03T01:56:41.205Z,20.18
2018-08-03T01:57:41.192Z,20.08
2018-08-03T01:58:41.179Z,20.00
2018-08-03T01:59:41.162Z,20.02
2018-08-03T02:00:41.154Z,19.86
2018-08-03T02:01:41.140Z,19.87
2018-08-03T02:02:41.134Z,19.83
2018-08-03T02:03:41.112Z,19.72
2018-08-03T02:04:41.102Z,19.66
2018-08-03T02:05:41.094Z,19.68
2018-08-03T02:06:41.073Z,19.55
2018-08-03T02:07:41.060Z,19.60
2018-08-03T02:08:41.054Z,19.51
2018-08-03T02:09:41.045Z,19.53
2018-08-03T02:10:41.032Z,19.58
2018-08-03T02:11:41.016Z,19.48
2018-08-03T02:12:41.000Z,19.47
2018-08-03T02:13:40.990Z,19.55
2018-08-03T02:14:40.978Z,19.53
2018-08-03T02:15:43.362Z,19.48
2018-08-03T02:16:40.949Z,19.54
2018-08-03T02:17:40.994Z,19.47
2018-08-03T02:18:40.932Z,19.39
2018-08-03T02:19:40.918Z,19.36
2018-08-03T02:20:40.904Z,19.38
2018-08-03T02:21:40.887Z,19.42
2018-08-03T02:22:40.874Z,19.42
2018-08-03T02:23:40.865Z,19.35
2018-08-03T02:24:40.859Z,19.24
2018-08-03T02:25:40.844Z,19.24
2018-08-03T02:26:40.824Z,19.31
2018-08-03T02:27:40.811Z,19.23
2018-08-03T02:28:40.809Z,19.21
2018-08-03T02:29:40.789Z,19.17
2018-08-03T02:30:40.787Z,19.01
2018-08-03T02:31:40.766Z,19.18
2018-08-03T02:32:40.751Z,19.06
2018-08-03T02:33:40.739Z,19.10
2018-08-03T02:34:40.720Z,19.10
2018-08-03T02:35:40.717Z,19.10
2018-08-03T02:36:40.695Z,18.97
2018-08-03T02:37:40.687Z,19.01
2018-08-03T02:38:40.683Z,18.99
2018-08-03T02:39:40.665Z,18.98
2018-08-03T02:40:40.646Z,18.98
2018-08-03T02:41:40.636Z,18.95
2018-08-03T02:42:40.624Z,18.84
2018-08-03T02:43:40.611Z,18.90
2018-08-03T02:44:40.602Z,18.84
2018-08-03T02:45:40.582Z,18.86
2018-08-03T02:46:40.575Z,18.82
2018-08-03T02:47:40.563Z,18.79
2018-08-03T02:48:40.548Z,18.80
2018-08-03T02:49:40.540Z,18.80
2018-08-03T02:50:40.522Z,18.73
2018-08-03T02:51:40.507Z,18.67
2018-08-03T02:52:40.493Z,18.73
2018-08-03T02:53:40.487Z,18.67
2018-08-03T02:54:40.468Z,18.57
2018-08-03T02:55:40.459Z,18.70
2018-08-03T02:56:40.445Z,18.68
2018-08-03T02:57:40.442Z,18.67
2018-08-03T02:58:40.429Z,18.65
2018-08-03T02:59:40.403Z,18.65
2018-08-03T03:00:40.413Z,18.64
2018-08-03T03:01:40.385Z,18.68
2018-08-03T03:02:40.375Z,18.67
2018-08-03T03:03:40.352Z,18.68
2018-08-03T03:04:40.346Z,18.70
2018-08-03T03:05:40.334Z,18.61
2018-08-03T03:06:40.311Z,18.68
2018-08-03T03:07:40.302Z,18.68
2018-08-03T03:08:40.285Z,18.73
2018-08-03T03:09:40.276Z,18.68
2018-08-03T03:10:40.263Z,18.67
2018-08-03T03:11:40.247Z,18.58
2018-08-03T03:12:40.244Z,18.59
2018-08-03T03:13:40.228Z,18.62
2018-08-03T03:14:40.208Z,18.58
2018-08-03T03:15:40.202Z,18.55
2018-08-03T03:16:40.187Z,18.54
2018-08-03T03:17:40.177Z,18.57
2018-08-03T03:18:40.162Z,18.55
2018-08-03T03:19:40.175Z,18.54
2018-08-03T03:20:40.150Z,18.46
2018-08-03T03:21:40.127Z,18.57
2018-08-03T03:22:40.105Z,18.50
2018-08-03T03:23:40.091Z,18.55
2018-08-03T03:24:40.088Z,18.43
2018-08-03T03:25:40.065Z,18.40
2018-08-03T03:26:40.053Z,18.46
2018-08-03T03:27:40.046Z,18.40
2018-08-03T03:28:40.037Z,18.36
2018-08-03T03:29:40.014Z,18.37
2018-08-03T03:30:39.998Z,18.31
2018-08-03T03:31:39.995Z,18.37
2018-08-03T03:32:40.054Z,18.37
2018-08-03T03:33:39.963Z,18.39
2018-08-03T03:34:39.966Z,18.36
2018-08-03T03:35:39.944Z,18.36
2018-08-03T03:36:39.929Z,18.42
2018-08-03T03:37:39.910Z,18.37
2018-08-03T03:38:39.900Z,18.37
2018-08-03T03:39:39.884Z,18.31
2018-08-03T03:40:39.884Z,18.28
2018-08-03T03:41:39.859Z,18.36
2018-08-03T03:42:39.858Z,18.46
2018-08-03T03:43:39.833Z,18.40
2018-08-03T03:44:39.821Z,18.47
2018-08-03T03:45:39.887Z,18.37
2018-08-03T03:46:39.795Z,18.44
2018-08-03T03:47:39.778Z,18.39
2018-08-03T03:48:39.771Z,18.42
2018-08-03T03:49:39.763Z,18.36
2018-08-03T03:50:39.754Z,18.34
2018-08-03T03:51:39.725Z,18.31
2018-08-03T03:52:39.715Z,18.37
2018-08-03T03:53:39.696Z,18.36
2018-08-03T03:54:39.703Z,18.28
2018-08-03T03:55:39.674Z,18.21
2018-08-03T03:56:39.658Z,18.31
2018-08-03T03:57:39.652Z,18.18
2018-08-03T03:58:39.629Z,18.25
2018-08-03T03:59:39.620Z,18.33
2018-08-03T04:00:39.616Z,18.34
2018-08-03T04:01:39.594Z,18.28
2018-08-03T04:02:39.581Z,18.28
2018-08-03T04:03:39.565Z,18.22
2018-08-03T04:04:39.553Z,18.21
2018-08-03T04:05:39.564Z,18.27
2018-08-03T04:06:39.526Z,18.31
2018-08-03T04:07:39.512Z,18.28
2018-08-03T04:08:39.503Z,18.29
2018-08-03T04:09:39.491Z,18.24
2018-08-03T04:10:40.401Z,18.22
2018-08-03T04:11:39.459Z,18.34
2018-08-03T04:12:39.449Z,18.42
2018-08-03T04:13:39.436Z,18.47
2018-08-03T04:14:39.423Z,18.62
2018-08-03T04:15:39.414Z,18.64
2018-08-03T04:16:39.394Z,18.74
2018-08-03T04:17:39.388Z,18.76
2018-08-03T04:18:39.369Z,18.70
2018-08-03T04:19:39.356Z,18.73
2018-08-03T04:20:39.353Z,18.77
2018-08-03T04:21:39.344Z,18.86
2018-08-03T04:22:39.316Z,18.83
2018-08-03T04:23:39.307Z,18.97
2018-08-03T04:24:39.294Z,18.98
2018-08-03T04:25:39.293Z,18.95
2018-08-03T04:26:39.271Z,19.02
2018-08-03T04:27:39.252Z,19.18
2018-08-03T04:28:39.243Z,19.23
2018-08-03T04:29:39.227Z,19.39
2018-08-03T04:30:39.208Z,19.47
2018-08-03T04:31:39.200Z,19.60
2018-08-03T04:32:39.185Z,19.50
2018-08-03T04:33:39.181Z,19.51
2018-08-03T04:34:39.162Z,19.54
2018-08-03T04:35:39.156Z,19.55
2018-08-03T04:36:39.133Z,19.48
2018-08-03T04:37:39.123Z,19.48
2018-08-03T04:38:39.107Z,19.38
2018-08-03T04:39:39.101Z,19.47
2018-08-03T04:40:39.082Z,19.43
2018-08-03T04:41:39.070Z,19.43
2018-08-03T04:42:39.145Z,19.38
2018-08-03T04:43:39.040Z,19.32
2018-08-03T04:44:39.027Z,19.29
2018-08-03T04:45:39.030Z,19.28
2018-08-03T04:46:39.001Z,19.36
2018-08-03T04:47:38.991Z,19.40
2018-08-03T04:48:39.022Z,19.31
2018-08-03T04:49:38.966Z,19.33
2018-08-03T04:50:38.963Z,19.38
2018-08-03T04:51:38.960Z,19.38
2018-08-03T04:52:38.934Z,19.39
2018-08-03T04:53:38.920Z,19.43
2018-08-03T04:54:38.944Z,19.38
2018-08-03T04:55:38.895Z,19.40
2018-08-03T04:56:38.882Z,19.32
2018-08-03T04:57:38.863Z,19.43
2018-08-03T04:58:38.853Z,19.40
2018-08-03T04:59:38.844Z,19.50
2018-08-03T05:00:38.879Z,19.43
2018-08-03T05:01:38.817Z,19.58
2018-08-03T05:02:38.799Z,19.57
2018-08-03T05:03:38.806Z,19.55
2018-08-03T05:04:38.783Z,19.51
2018-08-03T05:05:38.764Z,19.61
2018-08-03T05:06:38.758Z,19.60
2018-08-03T05:07:38.738Z,19.66
2018-08-03T05:08:38.729Z,19.65
2018-08-03T05:09:38.716Z,19.58
2018-08-03T05:10:38.703Z,19.69
2018-08-03T05:11:39.366Z,19.76
2018-08-03T05:12:38.696Z,19.80
2018-08-03T05:13:38.677Z,19.80
2018-08-03T05:14:38.671Z,19.86
2018-08-03T05:15:38.656Z,19.84
2018-08-03T05:16:38.636Z,19.95
2018-08-03T05:17:38.619Z,19.88
2018-08-03T05:18:38.613Z,20.00
2018-08-03T05:19:38.591Z,20.03
2018-08-03T05:20:38.581Z,20.18
2018-08-03T05:21:38.578Z,20.28
2018-08-03T05:22:38.559Z,20.43
2018-08-03T05:23:38.553Z,20.47
2018-08-03T05:24:38.536Z,20.56
2018-08-03T05:25:38.517Z,20.58
2018-08-03T05:26:38.511Z,20.56
2018-08-03T05:27:38.494Z,20.65
2018-08-03T05:28:38.478Z,20.69
2018-08-03T05:29:38.472Z,20.65
2018-08-03T05:30:38.456Z,20.74
2018-08-03T05:31:38.446Z,20.71
2018-08-03T05:32:38.431Z,20.74
2018-08-03T05:33:38.440Z,20.81
2018-08-03T05:34:38.427Z,20.98
2018-08-03T05:35:38.400Z,20.99
2018-08-03T05:36:38.390Z,20.98
2018-08-03T05:37:38.374Z,21.09
2018-08-03T05:38:38.373Z,21.13
2018-08-03T05:39:38.373Z,21.19
2018-08-03T05:40:38.351Z,21.32
2018-08-03T05:41:38.331Z,21.23
2018-08-03T05:42:38.415Z,21.42
2018-08-03T05:43:38.314Z,21.51
2018-08-03T05:44:38.306Z,21.54
2018-08-03T05:45:38.288Z,21.50
2018-08-03T05:46:38.272Z,21.59
2018-08-03T05:47:38.262Z,21.63
2018-08-03T05:48:38.251Z,21.74
2018-08-03T05:49:38.247Z,21.74
2018-08-03T05:50:38.230Z,21.76
2018-08-03T05:51:38.214Z,21.91
2018-08-03T05:52:38.209Z,22.04
2018-08-03T05:53:38.226Z,22.13
2018-08-03T05:54:38.187Z,22.19
2018-08-03T05:55:38.172Z,22.31
2018-08-03T05:56:38.183Z,22.37
2018-08-03T05:57:38.190Z,22.38
2018-08-03T05:58:38.148Z,22.52
2018-08-03T05:59:38.126Z,22.74
2018-08-03T06:00:38.158Z,22.89
2018-08-03T06:01:38.113Z,23.19
2018-08-03T06:02:38.094Z,23.35
2018-08-03T06:03:38.100Z,23.71
2018-08-03T06:04:38.075Z,23.77
2018-08-03T06:05:38.068Z,24.05
2018-08-03T06:06:38.058Z,24.14
2018-08-03T06:07:38.047Z,24.05
2018-08-03T06:08:38.049Z,24.24
2018-08-03T06:09:38.061Z,24.23
2018-08-03T06:10:38.027Z,24.32
2018-08-03T06:11:38.008Z,24.32
2018-08-03T06:12:38.011Z,24.50
2018-08-03T06:13:37.981Z,24.50
2018-08-03T06:14:38.001Z,24.52
2018-08-03T06:15:37.966Z,24.50
2018-08-03T06:16:38.027Z,24.50
2018-08-03T06:17:37.957Z,24.37
2018-08-03T06:18:37.956Z,24.31
2018-08-03T06:19:37.926Z,24.29
2018-08-03T06:20:37.999Z,24.35
2018-08-03T06:21:37.910Z,24.34
2018-08-03T06:22:37.902Z,24.35
2018-08-03T06:23:37.883Z,24.27
2018-08-03T06:24:37.896Z,24.32
2018-08-03T06:25:37.867Z,24.29
2018-08-03T06:26:37.858Z,24.31
2018-08-03T06:27:37.851Z,24.42
2018-08-03T06:28:37.977Z,24.47
2018-08-03T06:29:37.841Z,24.56
2018-08-03T06:30:37.839Z,24.63
2018-08-03T06:31:37.819Z,24.67
2018-08-03T06:32:37.828Z,24.64
2018-08-03T06:33:37.794Z,24.76
2018-08-03T06:34:37.804Z,24.87
2018-08-03T06:35:37.768Z,24.91
2018-08-03T06:36:37.768Z,24.97
2018-08-03T06:37:37.755Z,25.01
2018-08-03T06:38:37.748Z,25.01
2018-08-03T06:39:37.733Z,25.06
2018-08-03T06:40:37.717Z,25.19
2018-08-03T06:41:37.720Z,25.27
2018-08-03T06:42:37.708Z,25.32
2018-08-03T06:43:37.693Z,25.31
2018-08-03T06:44:37.684Z,25.37
2018-08-03T06:45:37.683Z,25.49
2018-08-03T06:46:37.673Z,25.49
2018-08-03T06:47:37.656Z,25.42
2018-08-03T06:48:37.657Z,25.57
2018-08-03T06:49:37.645Z,25.59
2018-08-03T06:50:37.638Z,25.77
2018-08-03T06:51:37.628Z,25.83
2018-08-03T06:52:37.621Z,25.87
2018-08-03T06:53:37.608Z,25.90
2018-08-03T06:54:37.596Z,25.99
2018-08-03T06:55:37.594Z,26.08
2018-08-03T06:56:37.583Z,26.12
2018-08-03T06:57:37.666Z,26.21
2018-08-03T06:58:37.570Z,26.39
2018-08-03T06:59:37.570Z,26.32
2018-08-03T07:00:37.580Z,26.36
2018-08-03T07:01:37.533Z,26.43
2018-08-03T07:02:37.538Z,26.49
2018-08-03T07:03:37.524Z,26.54
2018-08-03T07:04:37.511Z,26.55
2018-08-03T07:05:37.505Z,26.62
2018-08-03T07:06:37.504Z,26.64
2018-08-03T07:07:37.488Z,26.64
2018-08-03T07:08:37.552Z,26.74
2018-08-03T07:09:37.476Z,26.80
2018-08-03T07:10:37.463Z,26.79
2018-08-03T07:11:37.461Z,26.89
2018-08-03T07:12:37.454Z,26.94
2018-08-03T07:13:37.442Z,26.87
2018-08-03T07:14:37.482Z,26.99
2018-08-03T07:15:37.428Z,27.01
2018-08-03T07:16:37.423Z,26.99
2018-08-03T07:17:37.415Z,26.94
2018-08-03T07:18:37.405Z,27.09
2018-08-03T07:19:37.396Z,27.16
2018-08-03T07:20:37.442Z,27.21
2018-08-03T07:21:37.382Z,27.28
2018-08-03T07:22:37.377Z,27.41
2018-08-03T07:23:37.364Z,27.50
2018-08-03T07:24:37.361Z,27.61
2018-08-03T07:25:37.361Z,27.73
2018-08-03T07:26:37.348Z,27.86
2018-08-03T07:27:37.340Z,27.94
2018-08-03T07:28:37.330Z,27.92
2018-08-03T07:29:37.323Z,28.07
2018-08-03T07:30:37.316Z,28.28
2018-08-03T07:31:37.359Z,28.38
2018-08-03T07:32:37.307Z,28.73
2018-08-03T07:33:37.298Z,28.87
2018-08-03T07:34:37.288Z,28.96
2018-08-03T07:35:37.284Z,29.01
2018-08-03T07:36:37.288Z,29.26
2018-08-03T07:37:37.281Z,29.47
2018-08-03T07:38:37.266Z,29.59
2018-08-03T07:39:37.262Z,30.00
2018-08-03T07:40:37.265Z,30.29
2018-08-03T07:41:37.258Z,30.52
2018-08-03T07:42:37.243Z,30.61
2018-08-03T07:43:37.362Z,30.83
2018-08-03T07:44:37.286Z,31.17
2018-08-03T07:45:37.350Z,31.46
2018-08-03T07:46:37.227Z,31.28
2018-08-03T07:47:37.224Z,31.24
2018-08-03T07:48:37.237Z,31.62
2018-08-03T07:49:37.214Z,31.87
2018-08-03T07:50:37.205Z,32.22
2018-08-03T07:51:37.218Z,32.18
2018-08-03T07:52:37.272Z,32.14
2018-08-03T07:53:37.191Z,31.99
2018-08-03T07:54:37.192Z,31.98
2018-08-03T07:55:37.192Z,32.07
2018-08-03T07:56:37.179Z,32.35
2018-08-03T07:57:37.176Z,32.54
2018-08-03T07:58:37.173Z,32.57
2018-08-03T07:59:37.192Z,32.48
2018-08-03T08:00:37.163Z,32.25
2018-08-03T08:01:37.164Z,32.33
2018-08-03T08:02:37.164Z,32.66
2018-08-03T08:03:37.150Z,32.64
2018-08-03T08:04:37.150Z,32.20
2018-08-03T08:05:37.144Z,32.13
2018-08-03T08:06:37.144Z,32.27
2018-08-03T08:07:37.137Z,32.51
2018-08-03T08:08:37.140Z,32.76
2018-08-03T08:09:37.174Z,32.70
2018-08-03T08:10:37.124Z,32.62
2018-08-03T08:11:37.124Z,32.25
2018-08-03T08:12:37.117Z,32.40
2018-08-03T08:13:37.117Z,32.32
2018-08-03T08:14:37.117Z,32.14
2018-08-03T08:15:37.138Z,32.06
2018-08-03T08:16:37.108Z,32.33
2018-08-03T08:17:37.126Z,32.58
2018-08-03T08:18:37.098Z,32.89
2018-08-03T08:19:37.101Z,33.42
2018-08-03T08:20:37.092Z,33.31
2018-08-03T08:21:37.091Z,33.13
2018-08-03T08:22:37.094Z,32.76
2018-08-03T08:23:37.085Z,32.79
2018-08-03T08:24:37.089Z,32.70
2018-08-03T08:25:37.088Z,32.95
2018-08-03T08:26:37.076Z,32.79
2018-08-03T08:27:37.079Z,32.80
2018-08-03T08:28:37.075Z,32.49
2018-08-03T08:29:37.067Z,32.80
2018-08-03T08:30:37.069Z,32.89
2018-08-03T08:31:37.137Z,33.07
2018-08-03T08:32:37.060Z,33.26
2018-08-03T08:33:37.066Z,33.06
2018-08-03T08:34:37.064Z,32.95
2018-08-03T08:35:37.061Z,33.29
2018-08-03T08:36:37.057Z,33.37
2018-08-03T08:37:37.054Z,33.29
2018-08-03T08:38:37.044Z,32.84
2018-08-03T08:39:37.041Z,32.84
2018-08-03T08:40:37.044Z,32.59
2018-08-03T08:41:37.037Z,32.67
2018-08-03T08:42:37.037Z,32.81
2018-08-03T08:43:37.153Z,32.89
2018-08-03T08:44:37.047Z,32.96
2018-08-03T08:45:37.028Z,33.10
2018-08-03T08:46:37.023Z,33.26
2018-08-03T08:47:37.021Z,33.34
2018-08-03T08:48:37.023Z,33.37
2018-08-03T08:49:37.015Z,33.13
2018-08-03T08:50:37.018Z,33.07
2018-08-03T08:51:37.015Z,33.10
2018-08-03T08:52:37.008Z,33.37
2018-08-03T08:53:37.005Z,33.39
2018-08-03T08:54:37.010Z,33.37
2018-08-03T08:55:37.006Z,33.39
2018-08-03T08:56:37.012Z,33.06
2018-08-03T08:57:36.999Z,32.76
2018-08-03T08:58:37.006Z,32.62
2018-08-03T08:59:37.031Z,32.92
2018-08-03T09:00:36.996Z,33.15
2018-08-03T09:01:36.986Z,33.31
2018-08-03T09:02:36.987Z,33.55
2018-08-03T09:03:36.984Z,33.63
2018-08-03T09:04:37.050Z,33.90
2018-08-03T09:05:36.983Z,33.86
2018-08-03T09:06:36.974Z,33.27
2018-08-03T09:07:37.065Z,33.04
2018-08-03T09:08:36.978Z,32.88
2018-08-03T09:09:36.968Z,32.92
2018-08-03T09:10:36.968Z,32.84
2018-08-03T09:11:36.958Z,33.04
2018-08-03T09:12:36.960Z,33.22
2018-08-03T09:13:36.961Z,33.63
2018-08-03T09:14:36.955Z,33.85
2018-08-03T09:15:36.958Z,33.74
2018-08-03T09:16:36.952Z,33.45
2018-08-03T09:17:36.955Z,33.55
2018-08-03T09:18:36.959Z,33.53
2018-08-03T09:19:36.949Z,33.57
2018-08-03T09:20:36.946Z,33.65
2018-08-03T09:21:36.944Z,33.70
2018-08-03T09:22:36.934Z,33.92
2018-08-03T09:23:36.934Z,34.08
2018-08-03T09:24:36.969Z,34.09
2018-08-03T09:25:36.933Z,34.13
2018-08-03T09:26:36.924Z,34.29
2018-08-03T09:27:36.928Z,34.32
2018-08-03T09:28:36.928Z,34.24
2018-08-03T09:29:36.938Z,34.07
2018-08-03T09:30:36.921Z,34.16
2018-08-03T09:31:36.922Z,34.19
2018-08-03T09:32:36.922Z,34.13
2018-08-03T09:33:36.919Z,34.45
2018-08-03T09:34:36.914Z,34.56
2018-08-03T09:35:36.915Z,34.48
2018-08-03T09:36:36.973Z,34.60
2018-08-03T09:37:36.920Z,34.56
2018-08-03T09:38:36.900Z,34.48
2018-08-03T09:39:36.906Z,34.44
2018-08-03T09:40:36.896Z,34.44
2018-08-03T09:41:36.899Z,34.34
2018-08-03T09:42:36.896Z,34.34
2018-08-03T09:43:36.893Z,34.35
2018-08-03T09:44:36.889Z,34.45
2018-08-03T09:45:36.890Z,34.63
2018-08-03T09:46:36.884Z,34.74
2018-08-03T09:47:36.886Z,34.81
2018-08-03T09:48:36.884Z,34.81
2018-08-03T09:49:36.885Z,34.76
2018-08-03T09:50:36.884Z,34.60
2018-08-03T09:51:36.874Z,34.56
2018-08-03T09:52:36.878Z,34.66
2018-08-03T09:53:36.874Z,34.57
2018-08-03T09:54:36.916Z,34.73
2018-08-03T09:55:36.880Z,34.83
2018-08-03T09:56:36.868Z,34.84
2018-08-03T09:57:36.869Z,34.73
2018-08-03T09:58:36.870Z,34.58
2018-08-03T09:59:36.870Z,34.34
2018-08-03T10:00:36.861Z,34.26
2018-08-03T10:01:36.888Z,34.50
2018-08-03T10:02:36.861Z,34.70
2018-08-03T10:03:36.861Z,34.81
2018-08-03T10:04:36.938Z,34.35
2018-08-03T10:05:36.854Z,34.08
2018-08-03T10:06:36.865Z,34.23
2018-08-03T10:07:36.855Z,34.34
2018-08-03T10:08:36.861Z,34.50
2018-08-03T10:09:36.857Z,34.56
2018-08-03T10:10:36.845Z,34.63
2018-08-03T10:11:36.848Z,34.09
2018-08-03T10:12:36.848Z,34.09
2018-08-03T10:13:36.848Z,34.29
2018-08-03T10:14:36.855Z,34.38
2018-08-03T10:15:36.915Z,34.44
2018-08-03T10:16:36.843Z,34.46
2018-08-03T10:17:36.835Z,34.69
2018-08-03T10:18:36.838Z,34.70
2018-08-03T10:19:36.906Z,34.57
2018-08-03T10:20:36.828Z,34.61
2018-08-03T10:21:36.834Z,34.34
2018-08-03T10:22:36.829Z,34.27
2018-08-03T10:23:36.831Z,34.31
2018-08-03T10:24:36.842Z,34.27
2018-08-03T10:25:36.838Z,34.45
2018-08-03T10:26:36.839Z,34.31
2018-08-03T10:27:36.834Z,34.44
2018-08-03T10:28:36.829Z,34.50
2018-08-03T10:29:36.865Z,34.46
2018-08-03T10:30:36.828Z,34.74
2018-08-03T10:31:36.873Z,34.79
2018-08-03T10:32:36.829Z,34.63
2018-08-03T10:33:36.830Z,34.24
2018-08-03T10:34:36.835Z,34.29
2018-08-03T10:35:36.832Z,34.48
2018-08-03T10:36:36.840Z,34.53
2018-08-03T10:37:36.831Z,34.60
2018-08-03T10:38:36.832Z,34.81
2018-08-03T10:39:36.834Z,34.74
2018-08-03T10:40:36.835Z,34.83
2018-08-03T10:41:36.831Z,34.72
2018-08-03T10:42:36.838Z,34.74
2018-08-03T10:43:36.844Z,34.74
2018-08-03T10:44:36.834Z,34.79
2018-08-03T10:45:36.842Z,34.80
2018-08-03T10:46:36.840Z,34.91
2018-08-03T10:47:36.844Z,34.86
2018-08-03T10:48:36.886Z,34.92
2018-08-03T10:49:36.838Z,35.14
2018-08-03T10:50:36.851Z,35.32
2018-08-03T10:51:36.851Z,35.25
2018-08-03T10:52:36.854Z,35.18
2018-08-03T10:53:36.851Z,35.25
2018-08-03T10:54:36.857Z,35.47
2018-08-03T10:55:36.854Z,35.60
2018-08-03T10:56:36.858Z,36.04
2018-08-03T10:57:36.867Z,35.85
2018-08-03T10:58:36.870Z,35.74
2018-08-03T10:59:36.868Z,35.50
2018-08-03T11:00:36.883Z,35.76
2018-08-03T11:01:36.892Z,35.55
2018-08-03T11:02:36.878Z,35.72
2018-08-03T11:03:36.876Z,35.52
2018-08-03T11:04:36.882Z,35.51
2018-08-03T11:05:36.884Z,35.81
2018-08-03T11:06:36.904Z,35.86
2018-08-03T11:07:36.893Z,36.11
2018-08-03T11:08:36.900Z,36.01
2018-08-03T11:09:36.902Z,36.07
2018-08-03T11:10:36.909Z,36.01
2018-08-03T11:11:36.920Z,36.42
2018-08-03T11:12:36.916Z,36.54
2018-08-03T11:13:36.963Z,36.56
2018-08-03T11:14:36.921Z,36.49
2018-08-03T11:15:36.925Z,36.43
2018-08-03T11:16:36.938Z,36.41
2018-08-03T11:17:36.941Z,36.64
2018-08-03T11:18:36.945Z,36.64
2018-08-03T11:19:36.952Z,36.45
2018-08-03T11:20:36.952Z,36.17
2018-08-03T11:21:36.959Z,36.19
2018-08-03T11:22:36.963Z,36.08
2018-08-03T11:23:36.968Z,35.72
2018-08-03T11:24:36.975Z,35.95
2018-08-03T11:25:36.984Z,36.19
2018-08-03T11:26:36.993Z,36.17
2018-08-03T11:27:37.001Z,36.20
2018-08-03T11:28:36.997Z,36.31
2018-08-03T11:29:37.058Z,36.23
2018-08-03T11:30:37.010Z,36.20
2018-08-03T11:31:37.013Z,36.73
2018-08-03T11:32:37.013Z,36.90
2018-08-03T11:33:37.024Z,36.80
2018-08-03T11:34:37.034Z,36.87
2018-08-03T11:35:37.039Z,36.92
2018-08-03T11:36:37.048Z,36.92
2018-08-03T11:37:37.055Z,37.02
2018-08-03T11:38:37.067Z,37.24
2018-08-03T11:39:37.072Z,37.26
2018-08-03T11:40:37.077Z,37.29
2018-08-03T11:41:37.080Z,37.01
2018-08-03T11:42:37.083Z,36.46
2018-08-03T11:43:37.092Z,35.70
2018-08-03T11:44:37.096Z,35.03
2018-08-03T11:45:37.110Z,34.51
2018-08-03T11:46:37.113Z,34.13
2018-08-03T11:47:37.116Z,33.98
2018-08-03T11:48:37.123Z,33.74
2018-08-03T11:49:37.128Z,33.89
2018-08-03T11:50:37.131Z,34.74
2018-08-03T11:51:37.131Z,35.39
2018-08-03T11:52:37.137Z,36.01
2018-08-03T11:53:37.146Z,36.27
2018-08-03T11:54:37.154Z,35.93
2018-08-03T11:55:37.144Z,36.17
2018-08-03T11:56:37.146Z,36.61
2018-08-03T11:57:37.154Z,36.91
2018-08-03T11:58:37.171Z,37.21
2018-08-03T11:59:37.166Z,37.73
2018-08-03T12:00:37.169Z,38.05
2018-08-03T12:01:37.169Z,38.26
2018-08-03T12:02:37.188Z,38.36
2018-08-03T12:03:37.183Z,38.57
2018-08-03T12:04:37.188Z,38.45
2018-08-03T12:05:37.197Z,38.49
2018-08-03T12:06:37.285Z,38.52
2018-08-03T12:07:37.216Z,38.39
2018-08-03T12:08:37.212Z,38.29
2018-08-03T12:09:37.225Z,38.68
2018-08-03T12:10:37.234Z,38.92
2018-08-03T12:11:37.242Z,39.22
2018-08-03T12:12:38.088Z,38.75
2018-08-03T12:13:37.251Z,38.79
2018-08-03T12:14:37.260Z,39.06
2018-08-03T12:15:37.273Z,39.32
2018-08-03T12:16:37.285Z,39.33
2018-08-03T12:17:37.286Z,39.56
2018-08-03T12:18:37.307Z,39.88
2018-08-03T12:19:37.306Z,40.04
2018-08-03T12:20:37.315Z,40.10
2018-08-03T12:21:37.316Z,39.65
2018-08-03T12:22:37.339Z,39.06
2018-08-03T12:23:37.446Z,38.18
2018-08-03T12:24:37.350Z,38.55
2018-08-03T12:25:37.362Z,39.01
2018-08-03T12:26:37.375Z,39.22
2018-08-03T12:27:37.385Z,39.22
2018-08-03T12:28:37.394Z,38.82
2018-08-03T12:29:37.406Z,38.96
2018-08-03T12:30:37.404Z,38.75
2018-08-03T12:31:37.440Z,38.39
2018-08-03T12:32:37.426Z,38.53
2018-08-03T12:33:37.436Z,38.73
2018-08-03T12:34:37.445Z,39.20
2018-08-03T12:35:37.452Z,39.42
2018-08-03T12:36:37.468Z,39.05
2018-08-03T12:37:37.475Z,38.45
2018-08-03T12:38:37.481Z,38.29
2018-08-03T12:39:37.490Z,38.42
2018-08-03T12:40:37.513Z,38.41
2018-08-03T12:41:37.513Z,37.95
2018-08-03T12:42:37.522Z,38.01
2018-08-03T12:43:37.529Z,37.74
2018-08-03T12:44:37.547Z,38.07
2018-08-03T12:45:37.553Z,38.46
2018-08-03T12:46:37.566Z,38.75
2018-08-03T12:47:37.573Z,39.25
2018-08-03T12:48:37.580Z,39.65
2018-08-03T12:49:37.585Z,39.80
2018-08-03T12:50:37.668Z,39.90
2018-08-03T12:51:37.621Z,40.29
2018-08-03T12:52:37.723Z,40.18